createdAt,value
2022-09-12T00:01:27.949Z,16.29
2022-09-12T00:03:59.293Z,16.41
2022-09-12T00:06:30.807Z,16.33
2022-09-12T00:09:09.559Z,15.48
2022-09-12T00:11:41.402Z,14.49
2022-09-12T00:14:12.843Z,14.02
2022-09-12T00:16:41.407Z,14.57
2022-09-12T00:19:11.585Z,15.16
2022-09-12T00:21:40.610Z,15.57
2022-09-12T00:24:10.604Z,15.88
2022-09-12T00:26:38.464Z,16.18
2022-09-12T00:29:06.201Z,16.33
2022-09-12T00:31:34.357Z,16.43
2022-09-12T00:34:02.335Z,16.33
2022-09-12T00:36:31.178Z,15.53
2022-09-12T00:38:59.493Z,14.61
2022-09-12T00:41:34.051Z,14.09
2022-09-12T00:44:23.825Z,14.50
2022-09-12T00:47:03.481Z,15.12
2022-09-12T00:49:39.931Z,15.43
2022-09-12T00:52:13.616Z,15.66
2022-09-12T00:55:01.788Z,15.79
2022-09-12T00:58:17.390Z,15.84
2022-09-12T01:00:45.864Z,15.88
2022-09-12T01:03:17.930Z,16.01
2022-09-12T01:06:15.710Z,16.15
2022-09-12T01:08:47.068Z,16.41
2022-09-12T01:11:16.734Z,16.36
2022-09-12T01:13:46.366Z,15.43
2022-09-12T01:16:14.473Z,14.47
2022-09-12T01:19:13.033Z,13.89
2022-09-12T01:21:59.629Z,14.42
2022-09-12T01:24:55.012Z,14.98
2022-09-12T01:28:03.840Z,15.37
2022-09-12T01:30:45.730Z,15.56
2022-09-12T01:33:34.420Z,15.78
2022-09-12T01:36:24.651Z,15.95
2022-09-12T01:39:04.505Z,16.10
2022-09-12T01:42:01.741Z,16.12
2022-09-12T01:44:57.042Z,15.42
2022-09-12T01:47:41.474Z,14.32
2022-09-12T01:50:24.863Z,13.78
2022-09-12T01:52:59.861Z,14.35
2022-09-12T01:55:34.884Z,14.96
2022-09-12T01:58:15.526Z,15.36
2022-09-12T02:01:07.882Z,15.62
2022-09-12T02:03:51.993Z,15.86
2022-09-12T02:06:28.380Z,16.04
2022-09-12T02:09:11.203Z,16.19
2022-09-12T02:11:44.521Z,16.26
2022-09-12T02:14:25.690Z,16.02
2022-09-12T02:17:16.752Z,15.03
2022-09-12T02:19:53.209Z,14.33
2022-09-12T02:22:27.463Z,14.76
2022-09-12T02:25:02.237Z,15.22
2022-09-12T02:27:43.102Z,15.59
2022-09-12T02:30:14.521Z,15.90
2022-09-12T02:33:01.863Z,16.12
2022-09-12T02:35:46.271Z,16.22
2022-09-12T02:38:33.831Z,16.13
2022-09-12T02:41:02.148Z,15.15
2022-09-12T02:43:30.259Z,14.45
2022-09-12T02:45:58.255Z,14.74
2022-09-12T02:48:34.778Z,15.26
2022-09-12T02:51:03.857Z,15.75
2022-09-12T02:53:33.848Z,16.06
2022-09-12T02:56:02.763Z,16.25
2022-09-12T02:58:35.266Z,16.22
2022-09-12T03:01:25.815Z,15.36
2022-09-12T03:04:14.202Z,14.32
2022-09-12T03:06:58.816Z,13.86
2022-09-12T03:09:44.326Z,14.47
2022-09-12T03:13:01.557Z,15.12
2022-09-12T03:16:28.151Z,15.57
2022-09-12T03:19:06.309Z,15.87
2022-09-12T03:22:06.634Z,16.03
2022-09-12T03:24:51.983Z,16.18
2022-09-12T03:27:30.321Z,15.96
2022-09-12T03:30:00.342Z,14.99
2022-09-12T03:32:49.236Z,14.23
2022-09-12T03:35:23.184Z,14.49
2022-09-12T03:37:53.240Z,15.02
2022-09-12T03:40:21.334Z,15.36
2022-09-12T03:42:49.181Z,15.57
2022-09-12T03:45:17.035Z,15.67
2022-09-12T03:47:44.871Z,15.78
2022-09-12T03:50:12.572Z,15.82
2022-09-12T03:52:40.340Z,15.82
2022-09-12T03:55:08.330Z,15.86
2022-09-12T03:57:36.203Z,15.89
2022-09-12T04:00:08.217Z,15.21
2022-09-12T04:02:36.646Z,14.23
2022-09-12T04:05:05.261Z,13.62
2022-09-12T04:07:32.988Z,13.92
2022-09-12T04:10:00.730Z,14.42
2022-09-12T04:12:30.038Z,14.80
2022-09-12T04:14:57.762Z,14.98
2022-09-12T04:17:25.523Z,15.10
2022-09-12T04:19:53.249Z,15.21
2022-09-12T04:22:21.201Z,15.34
2022-09-12T04:24:48.984Z,15.53
2022-09-12T04:27:16.914Z,15.70
2022-09-12T04:29:44.671Z,15.81
2022-09-12T04:32:12.407Z,15.92
2022-09-12T04:34:40.148Z,16.08
2022-09-12T04:37:08.002Z,16.14
2022-09-12T04:39:35.736Z,15.51
2022-09-12T04:42:04.865Z,14.65
2022-09-12T04:44:32.599Z,14.07
2022-09-12T04:47:00.344Z,14.44
2022-09-12T04:49:28.113Z,15.19
2022-09-12T04:51:55.958Z,16.07
2022-09-12T04:54:23.784Z,16.77
2022-09-12T04:56:52.676Z,16.66
2022-09-12T04:59:22.042Z,16.44
2022-09-12T05:01:50.418Z,16.27
2022-09-12T05:04:18.628Z,16.02
2022-09-12T05:06:47.643Z,15.44
2022-09-12T05:09:26.801Z,14.68
2022-09-12T05:12:04.566Z,14.27
2022-09-12T05:14:35.258Z,14.92
2022-09-12T05:17:08.022Z,15.61
2022-09-12T05:19:42.192Z,16.10
2022-09-12T05:22:13.602Z,16.42
2022-09-12T05:24:47.282Z,16.43
2022-09-12T05:27:24.921Z,15.68
2022-09-12T05:29:53.124Z,14.90
2022-09-12T05:32:21.211Z,14.52
2022-09-12T05:34:49.952Z,15.08
2022-09-12T05:37:17.813Z,15.82
2022-09-12T05:39:46.654Z,16.37
2022-09-12T05:42:39.578Z,16.61
2022-09-12T05:45:35.224Z,15.96
2022-09-12T05:48:17.671Z,15.17
2022-09-12T05:51:11.783Z,14.93
2022-09-12T05:54:23.225Z,15.85
2022-09-12T05:57:25.183Z,16.67
2022-09-12T06:00:29.333Z,16.95
2022-09-12T06:03:05.508Z,16.20
2022-09-12T06:05:34.780Z,15.66
2022-09-12T06:08:20.288Z,15.28
2022-09-12T06:11:02.394Z,15.46
2022-09-12T06:13:42.292Z,16.52
2022-09-12T06:16:57.825Z,17.41
2022-09-12T06:20:03.209Z,17.66
2022-09-12T06:22:46.395Z,16.90
2022-09-12T06:25:24.743Z,16.37
2022-09-12T06:28:15.901Z,15.99
2022-09-12T06:31:37.927Z,15.73
2022-09-12T06:34:32.705Z,15.57
2022-09-12T06:37:01.483Z,15.94
2022-09-12T06:39:30.383Z,17.05
2022-09-12T06:41:58.383Z,17.83
2022-09-12T06:44:26.692Z,17.69
2022-09-12T06:46:54.465Z,17.37
2022-09-12T06:49:22.295Z,17.17
2022-09-12T06:51:50.070Z,17.05
2022-09-12T06:54:17.900Z,17.00
2022-09-12T06:56:46.001Z,16.96
2022-09-12T06:59:14.391Z,16.94
2022-09-12T07:01:42.378Z,16.91
2022-09-12T07:04:11.664Z,16.90
2022-09-12T07:06:42.985Z,16.90
2022-09-12T07:09:16.576Z,16.88
2022-09-12T07:11:46.231Z,16.86
2022-09-12T07:14:15.578Z,16.90
2022-09-12T07:16:43.835Z,17.00
2022-09-12T07:19:12.262Z,17.13
2022-09-12T07:21:41.675Z,17.29
2022-09-12T07:24:11.083Z,17.45
2022-09-12T07:26:42.410Z,17.58
2022-09-12T07:29:36.453Z,17.67
2022-09-12T07:32:32.127Z,17.79
2022-09-12T07:35:25.096Z,17.98
2022-09-12T07:38:13.012Z,18.17
2022-09-12T07:40:52.973Z,18.28
2022-09-12T07:43:33.462Z,18.41
2022-09-12T07:46:03.993Z,18.55
2022-09-12T07:48:42.893Z,18.55
2022-09-12T07:57:45.572Z,18.76
2022-09-12T08:07:26.156Z,19.17
2022-09-12T08:10:00.073Z,19.28
2022-09-12T08:12:32.417Z,19.38
2022-09-12T08:15:09.230Z,19.40
2022-09-12T08:18:11.523Z,19.39
2022-09-12T08:21:04.885Z,19.47
2022-09-12T08:23:55.751Z,19.63
2022-09-12T08:26:36.593Z,19.65
2022-09-12T08:29:19.870Z,19.56
2022-09-12T08:31:51.922Z,19.58
2022-09-12T08:34:38.487Z,19.63
2022-09-12T08:37:12.213Z,19.63
2022-09-12T08:39:48.126Z,19.70
2022-09-12T08:43:10.702Z,19.70
2022-09-12T08:45:58.567Z,19.56
2022-09-12T08:48:29.783Z,19.39
2022-09-12T08:50:58.881Z,19.26
2022-09-12T08:53:35.080Z,19.14
2022-09-12T08:56:12.139Z,18.95
2022-09-12T08:58:49.446Z,18.88
2022-09-12T09:01:50.401Z,18.78
2022-09-12T09:04:56.796Z,18.70
2022-09-12T09:07:58.363Z,18.72
2022-09-12T09:10:53.773Z,18.67
2022-09-12T09:14:08.766Z,18.52
2022-09-12T09:16:44.821Z,18.40
2022-09-12T09:19:25.387Z,18.46
2022-09-12T09:22:14.796Z,18.70
2022-09-12T09:24:58.352Z,18.98
2022-09-12T09:27:47.136Z,19.02
2022-09-12T09:30:19.698Z,18.97
2022-09-12T09:32:54.276Z,18.99
2022-09-12T09:35:44.650Z,18.98
2022-09-12T09:38:32.261Z,18.89
2022-09-12T09:42:08.040Z,18.81
2022-09-12T09:44:37.100Z,19.02
2022-09-12T09:47:05.493Z,19.26
2022-09-12T09:49:36.338Z,19.39
2022-09-12T09:52:08.519Z,19.37
2022-09-12T09:54:44.577Z,19.19
2022-09-12T09:57:34.371Z,19.09
2022-09-12T10:00:36.802Z,19.30
2022-09-12T10:03:14.089Z,19.62
2022-09-12T10:05:56.698Z,19.79
2022-09-12T10:08:36.877Z,19.82
2022-09-12T10:11:55.207Z,19.64
2022-09-12T10:14:38.693Z,19.45
2022-09-12T10:17:39.633Z,19.54
2022-09-12T10:20:45.337Z,19.46
2022-09-12T10:23:38.591Z,19.55
2022-09-12T10:26:17.707Z,19.81
2022-09-12T10:28:56.672Z,20.04
2022-09-12T10:31:51.469Z,20.32
2022-09-12T10:34:26.812Z,20.68
2022-09-12T10:37:02.982Z,21.03
2022-09-12T10:39:31.530Z,21.11
2022-09-12T10:42:06.647Z,20.95
2022-09-12T10:44:35.683Z,20.76
2022-09-12T10:47:30.347Z,20.68
2022-09-12T10:50:27.197Z,20.66
2022-09-12T10:53:14.217Z,20.62
2022-09-12T10:56:10.376Z,20.73
2022-09-12T10:59:07.259Z,20.97
2022-09-12T11:01:45.216Z,21.04
2022-09-12T11:04:56.785Z,20.84
2022-09-12T11:07:49.117Z,20.36
2022-09-12T11:10:37.974Z,19.98
2022-09-12T11:13:27.278Z,19.92
2022-09-12T11:16:23.334Z,20.02
2022-09-12T11:19:04.030Z,20.17
2022-09-12T11:22:08.978Z,20.25
2022-09-12T11:25:10.844Z,20.26
2022-09-12T11:28:07.924Z,20.29
2022-09-12T11:31:59.039Z,20.14
2022-09-12T11:34:58.435Z,20.24
2022-09-12T11:37:41.182Z,20.27
2022-09-12T11:40:36.134Z,20.17
2022-09-12T11:43:35.647Z,20.11
2022-09-12T11:46:38.737Z,20.19
2022-09-12T11:49:18.158Z,20.33
2022-09-12T11:52:07.478Z,20.38
2022-09-12T11:54:53.755Z,20.47
2022-09-12T11:57:25.352Z,20.48
2022-09-12T12:00:09.097Z,20.31
2022-09-12T12:03:10.272Z,20.14
2022-09-12T12:05:59.617Z,20.08
2022-09-12T12:08:33.204Z,20.09
2022-09-12T12:11:06.617Z,20.04
2022-09-12T12:13:45.982Z,19.99
2022-09-12T12:16:26.775Z,19.90
2022-09-12T12:18:59.880Z,19.80
2022-09-12T12:21:43.113Z,19.74
2022-09-12T12:24:22.964Z,19.70
2022-09-12T12:26:52.521Z,19.55
2022-09-12T12:29:20.319Z,19.27
2022-09-12T12:32:02.081Z,19.17
2022-09-12T12:34:34.057Z,19.22
2022-09-12T12:37:29.932Z,19.34
2022-09-12T12:40:20.191Z,19.45
2022-09-12T12:42:48.046Z,19.49
2022-09-12T12:45:18.688Z,19.51
2022-09-12T12:47:52.834Z,19.48
2022-09-12T12:50:20.575Z,19.43
2022-09-12T12:53:04.525Z,19.39
2022-09-12T12:55:50.232Z,19.37
2022-09-12T12:58:37.736Z,19.36
2022-09-12T13:01:05.892Z,19.31
2022-09-12T13:03:34.878Z,19.27
2022-09-12T13:06:08.213Z,19.24
2022-09-12T13:09:00.501Z,19.24
2022-09-12T13:11:40.535Z,19.20
2022-09-12T13:14:48.286Z,19.17
2022-09-12T13:17:45.762Z,19.17
2022-09-12T13:20:30.487Z,19.16
2022-09-12T13:23:26.544Z,19.19
2022-09-12T13:38:15.758Z,19.54
2022-09-12T13:54:20.240Z,19.27
2022-09-12T13:58:25.452Z,19.13
2022-09-12T14:01:20.080Z,19.18
2022-09-12T14:08:31.718Z,19.31
2022-09-12T14:15:40.007Z,19.56
2022-09-12T14:18:53.315Z,19.49
2022-09-12T14:25:57.396Z,19.27
2022-09-12T14:28:36.422Z,19.07
2022-09-12T14:31:28.029Z,18.97
2022-09-12T14:34:10.102Z,18.92
2022-09-12T14:36:50.073Z,18.82
2022-09-12T14:39:44.223Z,18.77
2022-09-12T14:42:21.059Z,18.72
2022-09-12T14:45:01.828Z,18.65
2022-09-12T14:47:44.706Z,18.67
2022-09-12T14:50:29.838Z,18.70
2022-09-12T14:53:28.039Z,18.66
2022-09-12T14:56:14.256Z,18.61
2022-09-12T14:58:45.668Z,18.53
2022-09-12T15:01:13.673Z,18.45
2022-09-12T15:03:49.271Z,18.36
2022-09-12T15:06:38.953Z,18.31
2022-09-12T15:09:14.285Z,18.23
2022-09-12T15:11:45.069Z,18.17
2022-09-12T15:14:14.891Z,18.12
2022-09-12T15:16:43.137Z,18.06
2022-09-12T15:19:10.860Z,18.00
2022-09-12T15:21:38.681Z,17.95
2022-09-12T15:24:06.609Z,17.91
2022-09-12T15:26:35.077Z,17.84
2022-09-12T15:29:03.434Z,17.73
2022-09-12T15:31:33.110Z,17.66
2022-09-12T15:34:03.115Z,17.58
2022-09-12T15:36:31.659Z,17.50
2022-09-12T15:38:59.632Z,17.47
2022-09-12T15:41:37.163Z,17.43
2022-09-12T15:44:14.867Z,17.41
2022-09-12T15:46:43.157Z,17.41
2022-09-12T15:49:11.005Z,17.35
2022-09-12T15:51:38.956Z,17.28
2022-09-12T15:54:06.736Z,17.22
2022-09-12T15:56:34.617Z,17.19
2022-09-12T15:59:02.933Z,17.21
2022-09-12T16:01:30.923Z,17.22
2022-09-12T16:03:58.863Z,17.19
2022-09-12T16:06:33.585Z,17.12
2022-09-12T16:09:04.334Z,17.06
2022-09-12T16:11:33.186Z,17.03
2022-09-12T16:14:01.049Z,16.97
2022-09-12T16:16:30.070Z,16.90
2022-09-12T16:18:59.034Z,16.82
2022-09-12T16:21:27.822Z,16.72
2022-09-12T16:23:56.069Z,16.62
2022-09-12T16:26:29.689Z,16.54
2022-09-12T16:29:03.914Z,16.45
2022-09-12T16:31:32.189Z,16.38
2022-09-12T16:34:05.112Z,16.51
2022-09-12T16:36:34.860Z,17.54
2022-09-12T16:39:03.540Z,18.61
2022-09-12T16:41:31.413Z,19.23
2022-09-12T16:43:59.408Z,18.85
2022-09-12T16:46:28.992Z,18.24
2022-09-12T16:48:58.983Z,17.79
2022-09-12T16:51:35.935Z,17.47
2022-09-12T16:54:25.204Z,17.22
2022-09-12T16:56:55.832Z,16.99
2022-09-12T16:59:25.593Z,16.82
2022-09-12T17:01:53.595Z,16.85
2022-09-12T17:04:27.688Z,17.74
2022-09-12T17:06:57.568Z,18.80
2022-09-12T17:09:33.373Z,19.27
2022-09-12T17:12:02.696Z,18.61
2022-09-12T17:14:31.087Z,17.86
2022-09-12T17:17:10.845Z,17.28
2022-09-12T17:19:46.810Z,16.77
2022-09-12T17:22:17.853Z,16.40
2022-09-12T17:24:50.221Z,16.27
2022-09-12T17:27:19.004Z,17.09
2022-09-12T17:29:51.418Z,17.94
2022-09-12T17:32:19.912Z,18.32
2022-09-12T17:34:52.774Z,17.79
2022-09-12T17:37:23.434Z,17.06
2022-09-12T17:39:55.363Z,16.53
2022-09-12T17:42:24.932Z,16.27
2022-09-12T17:44:54.629Z,16.95
2022-09-12T17:47:23.464Z,17.77
2022-09-12T17:49:56.357Z,18.23
2022-09-12T17:52:37.456Z,17.66
2022-09-12T17:55:07.363Z,16.92
2022-09-12T17:57:36.162Z,16.35
2022-09-12T18:00:05.948Z,16.12
2022-09-12T18:02:35.617Z,16.76
2022-09-12T18:05:07.203Z,17.55
2022-09-12T18:07:38.961Z,18.11
2022-09-12T18:10:11.468Z,18.32
2022-09-12T18:12:39.880Z,17.71
2022-09-12T18:15:09.078Z,16.97
2022-09-12T18:17:37.810Z,16.52
2022-09-12T18:20:11.146Z,17.00
2022-09-12T18:22:39.521Z,17.74
2022-09-12T18:25:14.154Z,18.25
2022-09-12T18:27:42.734Z,18.40
2022-09-12T18:30:21.432Z,17.75
2022-09-12T18:32:59.480Z,16.94
2022-09-12T18:35:33.664Z,16.58
2022-09-12T18:38:05.380Z,17.30
2022-09-12T18:40:39.088Z,18.08
2022-09-12T18:43:07.294Z,18.55
2022-09-12T18:45:36.455Z,18.66
2022-09-12T18:48:10.870Z,17.88
2022-09-12T18:50:41.668Z,16.91
2022-09-12T18:53:10.208Z,16.34
2022-09-12T18:55:38.578Z,16.73
2022-09-12T18:58:09.243Z,17.34
2022-09-12T19:00:42.014Z,17.83
2022-09-12T19:03:13.963Z,18.20
2022-09-12T19:05:46.918Z,18.48
2022-09-12T19:08:15.295Z,18.46
2022-09-12T19:10:44.757Z,17.57
2022-09-12T19:13:13.044Z,16.55
2022-09-12T19:15:47.857Z,15.93
2022-09-12T19:18:16.284Z,16.29
2022-09-12T19:20:44.844Z,16.77
2022-09-12T19:26:11.516Z,17.46
2022-09-12T19:28:40.248Z,17.75
2022-09-12T19:31:19.243Z,17.98
2022-09-12T19:33:48.738Z,18.17
2022-09-12T19:39:19.986Z,18.40
2022-09-12T19:41:48.567Z,18.21
2022-09-12T19:44:19.471Z,17.32
2022-09-12T19:46:55.622Z,16.65
2022-09-12T19:49:37.353Z,17.10
2022-09-12T19:52:05.445Z,17.62
2022-09-12T19:54:33.524Z,17.97
2022-09-12T19:57:01.751Z,18.26
2022-09-12T19:59:34.186Z,18.74
2022-09-12T20:02:03.988Z,18.96
2022-09-12T20:04:32.677Z,18.02
2022-09-12T20:07:00.472Z,16.91
2022-09-12T20:09:29.400Z,16.24
2022-09-12T20:11:59.054Z,16.60
2022-09-12T20:14:28.733Z,17.13
2022-09-12T20:16:56.512Z,17.52
2022-09-12T20:19:24.360Z,17.81
2022-09-12T20:21:54.593Z,17.99
2022-09-12T20:24:22.776Z,18.14
2022-09-12T20:27:00.238Z,18.33
2022-09-12T20:29:27.942Z,18.22
2022-09-12T20:31:55.687Z,17.31
2022-09-12T20:34:27.514Z,16.37
2022-09-12T20:36:58.375Z,15.89
2022-09-12T20:39:26.223Z,16.52
2022-09-12T20:41:54.154Z,17.30
2022-09-12T20:44:27.743Z,17.86
2022-09-12T20:47:55.199Z,18.25
2022-09-12T20:50:40.951Z,17.96
2022-09-12T20:53:20.620Z,17.01
2022-09-12T20:55:53.549Z,16.18
2022-09-12T20:58:25.668Z,15.67
2022-09-12T21:00:55.073Z,16.17
2022-09-12T21:03:23.265Z,16.80
2022-09-12T21:05:51.895Z,17.22
2022-09-12T21:08:20.257Z,17.47
2022-09-12T21:10:55.747Z,17.60
2022-09-12T21:13:26.145Z,17.62
2022-09-12T21:16:18.692Z,17.60
2022-09-12T21:19:01.515Z,17.29
2022-09-12T21:21:33.633Z,16.13
2022-09-12T21:24:04.838Z,15.38
2022-09-12T21:26:34.304Z,15.72
2022-09-12T21:29:02.410Z,16.23
2022-09-12T21:31:30.690Z,16.52
2022-09-12T21:33:58.391Z,16.66
2022-09-12T21:36:26.464Z,16.78
2022-09-12T21:38:59.234Z,16.86
2022-09-12T21:41:27.069Z,16.96
2022-09-12T21:43:54.852Z,17.03
2022-09-12T21:46:22.726Z,17.09
2022-09-12T21:48:50.492Z,17.20
2022-09-12T21:51:18.312Z,17.36
2022-09-12T21:53:46.151Z,17.51
2022-09-12T21:56:13.953Z,17.66
2022-09-12T21:58:41.750Z,17.65
2022-09-12T22:01:12.125Z,16.90
2022-09-12T22:03:39.969Z,16.04
2022-09-12T22:06:07.914Z,15.60
2022-09-12T22:08:37.731Z,16.15
2022-09-12T22:11:11.907Z,16.78
2022-09-12T22:13:44.000Z,17.16
2022-09-12T22:16:12.549Z,17.27
2022-09-12T22:18:40.686Z,17.31
2022-09-12T22:21:13.658Z,17.30
2022-09-12T22:24:00.561Z,17.16
2022-09-12T22:26:29.376Z,16.33
2022-09-12T22:28:57.255Z,15.38
2022-09-12T22:31:25.393Z,15.48
2022-09-12T22:33:59.066Z,15.74
2022-09-12T22:36:30.991Z,15.94
2022-09-12T22:38:59.921Z,16.07
2022-09-12T22:41:28.658Z,16.11
2022-09-12T22:43:57.036Z,16.17
2022-09-12T22:46:25.086Z,16.17
2022-09-12T22:48:52.913Z,16.20
2022-09-12T22:51:20.690Z,16.28
2022-09-12T22:53:48.519Z,16.35
2022-09-12T22:56:16.309Z,16.38
2022-09-12T22:58:44.286Z,16.41
2022-09-12T23:01:12.156Z,16.42
2022-09-12T23:03:40.277Z,16.43
2022-09-12T23:06:10.097Z,16.43
2022-09-12T23:08:42.469Z,16.39
2022-09-12T23:11:15.025Z,16.40
2022-09-12T23:13:46.652Z,16.47
2022-09-12T23:16:21.574Z,16.55
2022-09-12T23:18:50.161Z,16.62
2022-09-12T23:21:21.122Z,16.73
2022-09-12T23:23:50.526Z,16.83
2022-09-12T23:26:24.500Z,16.91
2022-09-12T23:29:05.756Z,16.95
2022-09-12T23:31:34.559Z,16.95
2022-09-12T23:34:06.148Z,16.95
2022-09-12T23:36:34.724Z,17.00
2022-09-12T23:39:02.895Z,17.01
2022-09-12T23:41:31.124Z,17.04
2022-09-12T23:43:59.010Z,16.93
2022-09-12T23:46:27.076Z,16.05
2022-09-12T23:48:54.781Z,15.21
2022-09-12T23:51:22.636Z,15.46
2022-09-12T23:53:50.606Z,15.98
2022-09-12T23:56:18.302Z,16.33
2022-09-12T23:58:45.990Z,16.53
